Time;durP1;ratioP1;P1;durP2;ratioP2;P2;SDS_P1;SDS_P2;PMS_P1;PMS_P2;Temp;Humidity;BMP_temperature;BMP_pressure;BME280_temperature;BME280_humidity;BME280_pressure;Samples;Min_cycle;Max_cycle;Signal;HPM_P1;HPM_P2
2022/10/31 00:00:43;;;;;;;;;;;;;;;19.58;75.43;101182.10;2295322;76;51507;-78
2022/10/31 00:03:45;;;;;;;;;;;;;;;19.57;75.47;101193.00;2319197;76;51419;-78
2022/10/31 00:06:47;;;;;;;;;;;;;;;19.56;75.48;101187.31;2295404;76;51805;-78
2022/10/31 00:09:48;;;;;;;;;;;;;;;19.54;75.61;101186.65;2295358;76;51779;-78
2022/10/31 00:12:50;;;;;;;;;;;;;;;19.53;75.62;101189.84;2295125;76;51444;-78
2022/10/31 00:15:51;;;;;;;;;;;;;;;19.53;75.65;101190.36;2295005;76;50441;-78
2022/10/31 00:18:54;;;;;;;;;;;;;;;19.54;75.63;101189.33;2295058;76;49755;-78
2022/10/31 00:21:55;;;;;;;;;;;;;;;19.54;75.64;101190.67;2305336;75;51320;-78
2022/10/31 00:24:57;;;;;;;;;;;;;;;19.53;75.75;101196.56;2320852;75;50683;-78
2022/10/31 00:27:58;;;;;;;;;;;;;;;19.55;75.52;101200.42;2319285;76;50295;-78
2022/10/31 00:31:02;;;;;;;;;;;;;;;19.51;75.64;101195.89;2294304;76;50068;-78
2022/10/31 00:34:03;;;;;;;;;;;;;;;19.51;75.56;101193.20;2317879;76;50240;-78
2022/10/31 00:37:05;;;;;;;;;;;;;;;19.51;75.50;101206.63;2318644;76;50730;-78
2022/10/31 00:40:07;;;;;;;;;;;;;;;19.56;75.49;101211.48;2318979;76;51577;-79
2022/10/31 00:43:08;;;;;;;;;;;;;;;19.57;75.48;101207.28;2303398;76;50068;-78
2022/10/31 00:46:10;;;;;;;;;;;;;;;19.58;75.40;101212.14;2313633;76;50393;-78
2022/10/31 00:49:12;;;;;;;;;;;;;;;19.61;75.16;101214.47;2313792;76;51428;-78
2022/10/31 00:52:13;;;;;;;;;;;;;;;19.65;74.98;101213.59;2336067;74;50302;-79
2022/10/31 00:55:15;;;;;;;;;;;;;;;19.64;74.81;101224.84;2313521;76;49561;-78
2022/10/31 00:58:17;;;;;;;;;;;;;;;19.65;74.70;101222.52;2345816;76;51410;-78
2022/10/31 01:01:18;;;;;;;;;;;;;;;19.65;74.71;101221.17;2345880;76;50263;-78
2022/10/31 01:04:20;;;;;;;;;;;;;;;19.65;74.64;101222.52;2313252;76;50339;-78
2022/10/31 01:07:21;;;;;;;;;;;;;;;19.64;74.69;101232.91;2345304;76;50698;-77
2022/10/31 01:10:23;;;;;;;;;;;;;;;19.63;74.57;101232.59;2313232;76;50790;-77
2022/10/31 01:13:25;;;;;;;;;;;;;;;19.63;74.56;101228.55;2345103;76;50303;-76
2022/10/31 01:16:26;;;;;;;;;;;;;;;19.62;74.50;101228.21;2313166;76;50721;-77
2022/10/31 01:19:29;;;;;;;;;;;;;;;19.64;74.60;101229.39;2312897;76;51262;-77
2022/10/31 01:22:30;;;;;;;;;;;;;;;19.65;74.55;101231.05;2335123;74;53725;-78
2022/10/31 01:25:32;;;;;;;;;;;;;;;19.64;74.53;101235.59;2347377;74;51444;-78
2022/10/31 01:28:34;;;;;;;;;;;;;;;19.65;74.55;101230.56;2386026;74;50293;-77
2022/10/31 01:31:39;;;;;;;;;;;;;;;19.64;74.52;101228.88;2352932;74;50962;-77
2022/10/31 01:34:40;;;;;;;;;;;;;;;19.64;74.55;101226.70;2352719;74;49535;-77
2022/10/31 01:37:42;;;;;;;;;;;;;;;19.64;74.57;101232.91;2386672;74;50762;-78
2022/10/31 01:40:44;;;;;;;;;;;;;;;19.64;74.51;101224.84;2387673;74;51411;-78
2022/10/31 01:43:47;;;;;;;;;;;;;;;19.63;74.57;101225.88;2330831;75;51665;-78
2022/10/31 01:47:02;;;;;;;;;;;;;;;19.64;74.52;101234.76;2287835;77;51470;-78
2022/10/31 01:50:06;;;;;;;;;;;;;;;19.64;74.48;101231.56;2183910;79;51663;-78
2022/10/31 01:53:07;;;;;;;;;;;;;;;19.63;74.46;101233.92;2222126;79;50506;-78
2022/10/31 01:56:09;;;;;;;;;;;;;;;19.62;74.42;101218.81;2228545;79;51014;-78
2022/10/31 01:59:11;;;;;;;;;;;;;;;19.62;74.48;101229.55;2228405;79;50321;-78
2022/10/31 02:02:13;;;;;;;;;;;;;;;19.62;74.42;101232.23;2228611;80;51547;-78
2022/10/31 02:05:19;;;;;;;;;;;;;;;19.61;74.41;101234.61;2228564;80;50355;-78
2022/10/31 02:08:28;;;;;;;;;;;;;;;19.62;74.46;101245.66;2203815;80;51471;-78
2022/10/31 02:11:29;;;;;;;;;;;;;;;19.58;74.59;101240.33;2204553;80;49554;-78
2022/10/31 02:14:31;;;;;;;;;;;;;;;19.57;74.52;101245.34;2228383;79;50701;-78
2022/10/31 02:17:32;;;;;;;;;;;;;;;19.58;74.82;101239.81;2228501;79;50632;-78
2022/10/31 02:20:54;;;;;;;;;;;;;;;19.57;74.60;101236.81;2229995;79;50934;-78
2022/10/31 02:24:06;;;;;;;;;;;;;;;19.59;74.61;101239.30;2231440;79;51766;-78
2022/10/31 02:27:21;;;;;;;;;;;;;;;19.59;74.47;101239.30;2318148;76;51607;-78
2022/10/31 02:30:25;;;;;;;;;;;;;;;19.59;74.45;101236.11;2327658;76;50715;-78
2022/10/31 02:33:28;;;;;;;;;;;;;;;19.58;74.38;101241.67;2299151;76;50085;-78
2022/10/31 02:36:31;;;;;;;;;;;;;;;19.56;74.41;101243.69;2327098;76;50379;-76
2022/10/31 02:39:46;;;;;;;;;;;;;;;19.58;74.40;101234.45;2307386;76;50406;-77
2022/10/31 02:42:49;;;;;;;;;;;;;;;19.58;74.35;101233.62;2327206;76;51654;-79
2022/10/31 02:45:53;;;;;;;;;;;;;;;19.58;74.37;101234.95;2282411;77;50945;-79
2022/10/31 02:48:55;;;;;;;;;;;;;;;19.59;74.40;101236.63;2291528;77;51555;-78
2022/10/31 02:51:57;;;;;;;;;;;;;;;19.57;74.40;101240.84;2311338;76;50364;-78
2022/10/31 02:54:58;;;;;;;;;;;;;;;19.58;74.39;101241.67;2317532;76;50677;-79
2022/10/31 02:58:01;;;;;;;;;;;;;;;19.58;74.41;101237.64;2271576;76;52604;-79
2022/10/31 03:01:14;;;;;;;;;;;;;;;19.59;74.38;101248.70;2330614;76;51546;-79
2022/10/31 03:04:33;;;;;;;;;;;;;;;19.58;74.35;101249.72;2329526;75;51642;-79
2022/10/31 03:07:43;;;;;;;;;;;;;;;19.59;74.34;101256.75;2330255;76;51525;-78
2022/10/31 03:10:49;;;;;;;;;;;;;;;19.58;74.35;101255.92;2322697;76;52476;-79
2022/10/31 03:13:53;;;;;;;;;;;;;;;19.58;74.35;101263.15;2329954;76;50640;-77
2022/10/31 03:16:54;;;;;;;;;;;;;;;19.58;74.37;101257.78;2328913;76;50782;-77
2022/10/31 03:19:56;;;;;;;;;;;;;;;19.54;74.26;101257.27;2329606;76;52202;-78
2022/10/31 03:22:58;;;;;;;;;;;;;;;19.55;74.31;101262.98;2256950;76;50075;-78
2022/10/31 03:26:00;;;;;;;;;;;;;;;19.56;74.22;101271.36;2327206;76;50695;-78
2022/10/31 03:29:02;;;;;;;;;;;;;;;19.56;74.26;101267.84;2327439;76;50423;-79
2022/10/31 03:32:05;;;;;;;;;;;;;;;19.57;74.28;101274.88;2327562;76;51586;-77
2022/10/31 03:35:07;;;;;;;;;;;;;;;19.58;74.24;101271.20;2295156;76;52428;-77
2022/10/31 03:38:09;;;;;;;;;;;;;;;19.56;74.35;101277.24;2295684;76;50943;-78
2022/10/31 03:41:11;;;;;;;;;;;;;;;19.57;74.29;101274.88;2327712;76;51596;-78
2022/10/31 03:44:13;;;;;;;;;;;;;;;19.57;74.25;101287.81;2318648;76;50892;-78
2022/10/31 03:47:15;;;;;;;;;;;;;;;19.56;74.28;101291.49;2273613;77;52646;-80
2022/10/31 03:50:17;;;;;;;;;;;;;;;19.57;74.23;101293.66;2294665;76;50338;-78
2022/10/31 03:53:20;;;;;;;;;;;;;;;19.58;74.19;101298.05;2323960;76;50154;-79
2022/10/31 03:56:23;;;;;;;;;;;;;;;19.55;74.14;101297.05;2332139;76;50172;-80
2022/10/31 03:59:36;;;;;;;;;;;;;;;19.57;74.20;101296.35;2297927;76;51514;-78
2022/10/31 04:02:39;;;;;;;;;;;;;;;19.57;74.20;101297.69;2314672;76;51635;-77
2022/10/31 04:05:40;;;;;;;;;;;;;;;19.56;74.19;101297.38;2294835;77;50379;-78
2022/10/31 04:08:43;;;;;;;;;;;;;;;19.55;74.13;101294.37;2294551;76;50347;-79
2022/10/31 04:11:47;;;;;;;;;;;;;;;19.53;74.19;101294.53;2262146;77;52656;-77
2022/10/31 04:14:48;;;;;;;;;;;;;;;19.54;74.17;101298.05;2292767;77;51530;-77
2022/10/31 04:17:50;;;;;;;;;;;;;;;19.55;74.18;101303.25;2294361;77;50693;-77
2022/10/31 04:21:02;;;;;;;;;;;;;;;19.53;74.25;101298.55;2302063;76;51502;-77
2022/10/31 04:24:04;;;;;;;;;;;;;;;19.52;74.24;101310.31;2288172;76;51014;-77
2022/10/31 04:27:05;;;;;;;;;;;;;;;19.54;74.24;101311.47;2274483;76;50059;-77
2022/10/31 04:30:07;;;;;;;;;;;;;;;19.52;74.19;101310.31;2299736;76;52489;-77
2022/10/31 04:33:09;;;;;;;;;;;;;;;19.53;74.21;101317.34;2299610;76;51530;-78
2022/10/31 04:36:10;;;;;;;;;;;;;;;19.52;74.20;101308.97;2299472;76;51445;-77
2022/10/31 04:39:12;;;;;;;;;;;;;;;19.53;74.22;101313.83;2333704;76;50355;-77
2022/10/31 04:42:13;;;;;;;;;;;;;;;19.51;74.19;101315.84;2299947;76;50753;-79
2022/10/31 04:45:15;;;;;;;;;;;;;;;19.51;74.23;101313.16;2318767;75;50372;-78
2022/10/31 04:48:17;;;;;;;;;;;;;;;19.50;74.17;101317.70;2312633;75;50073;-76
2022/10/31 04:51:18;;;;;;;;;;;;;;;19.47;74.31;101319.88;2364836;75;51495;-78
2022/10/31 04:54:20;;;;;;;;;;;;;;;19.46;74.19;101319.04;2373792;75;50654;-77
2022/10/31 04:57:21;;;;;;;;;;;;;;;19.48;74.20;101317.54;2373936;75;51458;-76
2022/10/31 05:00:23;;;;;;;;;;;;;;;19.48;74.22;101318.37;2364045;75;52474;-78
2022/10/31 05:03:24;;;;;;;;;;;;;;;19.49;74.17;101321.37;2298946;76;53872;-77
2022/10/31 05:06:26;;;;;;;;;;;;;;;19.49;74.17;101316.00;2341885;75;50732;-77
2022/10/31 05:09:28;;;;;;;;;;;;;;;19.50;74.05;101316.36;2338653;75;50445;-78
2022/10/31 05:12:29;;;;;;;;;;;;;;;19.51;74.02;101323.90;2338492;75;51250;-77
2022/10/31 05:15:31;;;;;;;;;;;;;;;19.50;73.98;101327.60;2373848;75;50374;-79
2022/10/31 05:18:32;;;;;;;;;;;;;;;19.45;73.87;101329.45;2374154;75;50495;-79
2022/10/31 05:21:34;;;;;;;;;;;;;;;19.43;73.71;101335.50;2324880;75;50730;-77
2022/10/31 05:24:36;;;;;;;;;;;;;;;19.46;73.82;101328.95;2299283;76;50970;-78
2022/10/31 05:27:42;;;;;;;;;;;;;;;19.41;73.49;101335.33;2325460;76;50811;-78
2022/10/31 05:30:43;;;;;;;;;;;;;;;19.38;73.48;101333.83;2333105;75;51601;-79
2022/10/31 05:33:45;;;;;;;;;;;;;;;19.43;73.71;101331.98;2325473;76;50299;-78
2022/10/31 05:36:46;;;;;;;;;;;;;;;19.45;73.68;101336.67;2299578;76;51406;-78
2022/10/31 05:39:48;;;;;;;;;;;;;;;19.45;73.62;101338.02;2325535;76;51490;-78
2022/10/31 05:42:51;;;;;;;;;;;;;;;19.46;73.51;101341.86;2325584;76;50694;-78
2022/10/31 05:45:56;;;;;;;;;;;;;;;19.45;73.52;101337.51;2331181;74;50268;-78
2022/10/31 05:48:57;;;;;;;;;;;;;;;19.45;73.48;101336.16;2324963;75;49623;-78
2022/10/31 05:51:59;;;;;;;;;;;;;;;19.43;73.48;101340.03;2344816;75;50580;-78
2022/10/31 05:55:01;;;;;;;;;;;;;;;19.43;73.47;101344.05;2332533;75;51426;-79
2022/10/31 05:58:02;;;;;;;;;;;;;;;19.42;73.40;101350.41;2327457;76;50657;-79
2022/10/31 06:01:05;;;;;;;;;;;;;;;19.37;73.54;101349.61;2307119;76;50978;-79
2022/10/31 06:04:06;;;;;;;;;;;;;;;19.38;73.62;101342.39;2311050;76;50658;-79
2022/10/31 06:07:08;;;;;;;;;;;;;;;19.36;73.43;101350.60;2310970;76;51413;-79
2022/10/31 06:10:10;;;;;;;;;;;;;;;19.35;73.45;101348.42;2310916;76;50679;-80
2022/10/31 06:13:11;;;;;;;;;;;;;;;19.42;73.46;101351.75;2285316;76;50044;-79
2022/10/31 06:16:13;;;;;;;;;;;;;;;19.43;73.64;101354.80;2310699;76;51531;-78
2022/10/31 06:19:14;;;;;;;;;;;;;;;19.41;73.25;101354.12;2311011;76;51510;-79
2022/10/31 06:22:16;;;;;;;;;;;;;;;19.43;72.94;101369.55;2312664;75;51567;-77
2022/10/31 06:25:17;;;;;;;;;;;;;;;19.45;72.71;101362.17;2326070;75;50071;-77
2022/10/31 06:28:19;;;;;;;;;;;;;;;19.42;73.95;101359.80;2327861;75;50353;-77
2022/10/31 06:31:21;;;;;;;;;;;;;;;19.42;74.01;101358.47;2310815;75;50110;-76
2022/10/31 06:34:22;;;;;;;;;;;;;;;19.44;73.70;101358.63;2334493;75;50717;-76
2022/10/31 06:37:24;;;;;;;;;;;;;;;19.41;73.94;101363.00;2310164;76;50908;-77
2022/10/31 06:40:25;;;;;;;;;;;;;;;19.41;73.69;101373.73;2326994;76;51407;-76
2022/10/31 06:43:27;;;;;;;;;;;;;;;19.41;73.56;101375.59;2348025;75;52324;-76
2022/10/31 06:46:28;;;;;;;;;;;;;;;19.42;73.48;101378.59;2322483;76;52238;-79
2022/10/31 06:49:30;;;;;;;;;;;;;;;19.39;73.61;101388.33;2295133;76;49480;-80
2022/10/31 06:52:32;;;;;;;;;;;;;;;19.39;73.67;101393.70;2317014;75;50352;-80
2022/10/31 06:55:33;;;;;;;;;;;;;;;19.42;73.56;101396.04;2300210;76;50133;-81
2022/10/31 06:58:35;;;;;;;;;;;;;;;19.42;73.47;101394.22;2328184;76;50580;-80
2022/10/31 07:01:36;;;;;;;;;;;;;;;19.43;73.46;101400.41;2300591;76;51000;-79
2022/10/31 07:04:38;;;;;;;;;;;;;;;19.43;73.42;101401.76;2299400;76;50687;-80
2022/10/31 07:07:39;;;;;;;;;;;;;;;19.41;73.40;101396.55;2327652;76;51326;-80
2022/10/31 07:10:42;;;;;;;;;;;;;;;19.43;73.42;101397.22;2299307;76;51491;-80
2022/10/31 07:13:43;;;;;;;;;;;;;;;19.42;73.43;101407.64;2301262;76;49559;-80
2022/10/31 07:16:46;;;;;;;;;;;;;;;19.43;73.60;101408.47;2327549;76;50345;-80
2022/10/31 07:19:48;;;;;;;;;;;;;;;19.43;73.53;101401.76;2327502;76;50261;-80
2022/10/31 07:22:50;;;;;;;;;;;;;;;19.44;73.45;101406.11;2325962;75;50406;-80
2022/10/31 07:25:58;;;;;;;;;;;;;;;19.46;73.40;101412.15;2293663;76;50073;-78
2022/10/31 07:28:59;;;;;;;;;;;;;;;19.44;73.39;101416.84;2318614;76;51646;-80
2022/10/31 07:32:01;;;;;;;;;;;;;;;19.45;73.43;101409.14;2319141;76;50631;-79
2022/10/31 07:35:03;;;;;;;;;;;;;;;19.46;73.36;101406.78;2319155;76;50918;-79
2022/10/31 07:38:09;;;;;;;;;;;;;;;19.47;73.35;101420.52;2294922;76;50093;-80
2022/10/31 07:41:11;;;;;;;;;;;;;;;19.50;73.30;101422.89;2319721;76;50052;-80
2022/10/31 07:44:12;;;;;;;;;;;;;;;19.50;73.33;101424.23;2327814;75;51360;-80
2022/10/31 07:47:14;;;;;;;;;;;;;;;19.50;73.13;101428.27;2314686;76;50733;-80
2022/10/31 07:50:23;;;;;;;;;;;;;;;19.49;73.26;101428.73;2312336;76;51528;-80
2022/10/31 07:53:24;;;;;;;;;;;;;;;19.51;73.14;101429.41;2301977;76;49387;-80
2022/10/31 07:56:26;;;;;;;;;;;;;;;19.52;73.04;101428.42;2315640;76;50282;-80
2022/10/31 07:59:28;;;;;;;;;;;;;;;19.49;73.15;101433.27;2315771;76;50576;-79
2022/10/31 08:02:29;;;;;;;;;;;;;;;19.52;73.00;101433.80;2315577;76;51373;-79
2022/10/31 08:05:31;;;;;;;;;;;;;;;19.49;73.06;101440.81;2337821;76;50686;-81
2022/10/31 08:08:33;;;;;;;;;;;;;;;19.49;73.05;101446.70;2320850;75;50682;-80
2022/10/31 08:11:34;;;;;;;;;;;;;;;19.48;73.14;101443.18;2264507;76;50590;-80
2022/10/31 08:14:36;;;;;;;;;;;;;;;19.56;72.91;101450.38;2298187;77;51427;-79
2022/10/31 08:17:37;;;;;;;;;;;;;;;19.51;72.99;101442.84;2297816;77;51407;-77
2022/10/31 08:20:39;;;;;;;;;;;;;;;19.50;73.13;101443.02;2302173;76;51410;-77
2022/10/31 08:23:41;;;;;;;;;;;;;;;19.46;73.17;101443.02;2314262;74;51385;-77
2022/10/31 08:26:43;;;;;;;;;;;;;;;19.43;73.08;101450.06;2284337;76;50041;-78
2022/10/31 08:29:44;;;;;;;;;;;;;;;19.42;73.12;101445.69;2309202;76;51414;-77
2022/10/31 08:32:46;;;;;;;;;;;;;;;19.42;73.14;101449.72;2315035;76;50727;-78
2022/10/31 08:35:48;;;;;;;;;;;;;;;19.41;73.14;101454.77;2314930;76;50574;-79
2022/10/31 08:38:49;;;;;;;;;;;;;;;19.42;73.13;101457.29;2336602;76;50265;-77
2022/10/31 08:41:51;;;;;;;;;;;;;;;19.43;73.07;101459.46;2288823;76;49446;-77
2022/10/31 08:44:53;;;;;;;;;;;;;;;19.46;73.01;101464.48;2314389;76;50577;-77
2022/10/31 08:47:56;;;;;;;;;;;;;;;19.44;73.05;101457.09;2336819;75;51492;-76
2022/10/31 08:50:58;;;;;;;;;;;;;;;19.44;73.07;101453.91;2353957;75;52538;-79
2022/10/31 08:53:59;;;;;;;;;;;;;;;19.46;73.20;101449.73;2333413;75;50041;-79
2022/10/31 08:57:01;;;;;;;;;;;;;;;19.46;73.31;101457.27;2328317;75;50722;-78
2022/10/31 09:00:03;;;;;;;;;;;;;;;19.46;73.34;101452.41;2322363;76;51510;-78
2022/10/31 09:03:06;;;;;;;;;;;;;;;19.45;73.17;101453.43;2328498;75;50650;-78
2022/10/31 09:06:08;;;;;;;;;;;;;;;19.48;72.94;101453.08;2332965;75;50950;-78
2022/10/31 09:09:10;;;;;;;;;;;;;;;19.47;73.01;101456.76;2333319;75;50633;-77
2022/10/31 09:12:11;;;;;;;;;;;;;;;19.48;72.89;101457.94;2357928;75;51470;-77
2022/10/31 09:15:13;;;;;;;;;;;;;;;19.49;72.59;101463.63;2338219;75;51413;-77
2022/10/31 09:18:15;;;;;;;;;;;;;;;19.46;72.57;101466.66;2288286;76;50952;-77
2022/10/31 09:21:17;;;;;;;;;;;;;;;19.46;72.40;101466.66;2318282;76;50774;-77
2022/10/31 09:24:18;;;;;;;;;;;;;;;19.45;72.27;101474.91;2318157;76;51361;-78
2022/10/31 09:27:20;;;;;;;;;;;;;;;19.45;72.24;101472.22;2316909;76;50635;-77
2022/10/31 09:30:22;;;;;;;;;;;;;;;19.44;72.01;101473.20;2271014;76;52468;-77
2022/10/31 09:33:23;;;;;;;;;;;;;;;19.44;71.97;101482.59;2326324;76;50238;-78
2022/10/31 09:36:25;;;;;;;;;;;;;;;19.43;71.67;101480.94;2298680;76;50264;-79
2022/10/31 09:39:26;;;;;;;;;;;;;;;19.44;70.26;101474.03;2346578;75;50434;-79
2022/10/31 09:42:41;;;;;;;;;;;;;;;19.44;70.47;101475.89;2332516;75;50029;-77
2022/10/31 09:46:03;;;;;;;;;;;;;;;19.41;70.25;101484.28;2356515;75;50404;-77
2022/10/31 09:49:18;;;;;;;;;;;;;;;19.36;70.04;101488.30;2329262;76;50390;-78
2022/10/31 09:52:33;;;;;;;;;;;;;;;19.34;69.42;101493.02;2329364;76;50822;-77
2022/10/31 09:55:36;;;;;;;;;;;;;;;19.34;69.41;101493.50;2321276;76;50949;-77
2022/10/31 09:58:40;;;;;;;;;;;;;;;19.30;69.03;101491.66;2327139;76;50400;-77
2022/10/31 10:01:52;;;;;;;;;;;;;;;19.28;68.99;101497.69;2330454;76;50251;-77
2022/10/31 10:05:00;;;;;;;;;;;;;;;19.26;68.85;101486.79;2298953;76;50480;-78
2022/10/31 10:08:09;;;;;;;;;;;;;;;19.22;68.21;101487.64;2299126;76;51012;-77
2022/10/31 10:11:13;;;;;;;;;;;;;;;19.22;68.17;101495.69;2331483;76;51539;-77
2022/10/31 10:14:25;;;;;;;;;;;;;;;19.21;68.19;101493.16;2329231;76;51530;-77
2022/10/31 10:17:40;;;;;;;;;;;;;;;19.22;68.68;101487.64;2329216;76;51554;-76
2022/10/31 10:20:43;;;;;;;;;;;;;;;19.21;68.80;101483.26;2284086;76;51047;-77
2022/10/31 10:23:59;;;;;;;;;;;;;;;19.19;68.92;101479.06;2291337;77;50758;-75
2022/10/31 10:27:14;;;;;;;;;;;;;;;19.21;69.15;101475.20;2299017;76;51569;-76
2022/10/31 10:30:20;;;;;;;;;;;;;;;19.22;69.33;101471.54;2331775;76;50739;-76
2022/10/31 10:33:33;;;;;;;;;;;;;;;19.21;69.58;101475.20;2320681;76;51328;-76
2022/10/31 10:36:36;;;;;;;;;;;;;;;19.22;69.71;101467.52;2315320;76;50416;-76
2022/10/31 10:39:39;;;;;;;;;;;;;;;19.21;69.63;101462.30;2298242;77;50304;-76
2022/10/31 10:49:35;;;;;;;;;;;;;;;19.18;69.97;101456.77;2369112;75;22366;-75
2022/10/31 10:52:51;;;;;;;;;;;;;;;19.22;70.06;101451.42;2369873;75;51742;-75
2022/10/31 10:55:54;;;;;;;;;;;;;;;19.24;69.95;101457.46;2369742;75;52311;-75
2022/10/31 10:58:55;;;;;;;;;;;;;;;19.20;69.98;101458.79;2320145;75;50472;-76
2022/10/31 11:01:57;;;;;;;;;;;;;;;19.23;70.12;101459.79;2359664;75;50405;-77
2022/10/31 11:04:59;;;;;;;;;;;;;;;19.23;70.12;101462.47;2359292;75;51402;-77
2022/10/31 11:08:01;;;;;;;;;;;;;;;19.23;70.15;101459.79;2359592;75;51471;-78
2022/10/31 11:11:04;;;;;;;;;;;;;;;19.27;70.17;101456.29;2300761;76;50656;-77
2022/10/31 11:14:07;;;;;;;;;;;;;;;19.29;70.07;101456.94;2319334;76;50170;-76
2022/10/31 11:17:28;;;;;;;;;;;;;;;19.28;70.15;101453.42;2317120;76;50792;-79
2022/10/31 11:20:35;;;;;;;;;;;;;;;19.25;70.55;101449.73;2318668;76;50449;-78
2022/10/31 11:23:37;;;;;;;;;;;;;;;19.27;70.28;101446.39;2294099;76;51824;-78
2022/10/31 11:26:39;;;;;;;;;;;;;;;19.27;70.20;101444.22;2319347;75;51460;-78
2022/10/31 11:29:40;;;;;;;;;;;;;;;19.25;70.24;101437.66;2337930;75;50385;-78
2022/10/31 11:32:43;;;;;;;;;;;;;;;19.27;70.38;101435.66;2324157;76;50580;-78
2022/10/31 11:35:45;;;;;;;;;;;;;;;19.26;70.33;101437.98;2309580;76;51099;-78
2022/10/31 11:38:47;;;;;;;;;;;;;;;19.25;70.26;101440.85;2322281;76;50339;-78
2022/10/31 11:41:48;;;;;;;;;;;;;;;19.25;70.27;101439.00;2322036;76;50257;-78
2022/10/31 11:44:50;;;;;;;;;;;;;;;19.26;70.27;101430.44;2318279;76;51390;-78
2022/10/31 11:47:52;;;;;;;;;;;;;;;19.26;70.19;101429.94;2298584;76;49537;-78
2022/10/31 11:50:55;;;;;;;;;;;;;;;19.30;70.28;101435.82;2353443;75;51479;-77
2022/10/31 11:53:58;;;;;;;;;;;;;;;19.37;70.12;101434.14;2341665;75;50184;-78
2022/10/31 11:57:02;;;;;;;;;;;;;;;19.41;69.95;101433.29;2333033;74;50621;-78
2022/10/31 12:00:04;;;;;;;;;;;;;;;19.39;70.03;101433.45;2356619;74;22396;-78
2022/10/31 12:03:26;;;;;;;;;;;;;;;19.40;70.17;101427.60;2333102;76;50743;-78
2022/10/31 12:06:37;;;;;;;;;;;;;;;19.41;70.19;101429.27;2293829;77;50415;-77
2022/10/31 12:09:39;;;;;;;;;;;;;;;19.47;70.04;101432.59;2293506;77;50722;-77
2022/10/31 12:12:48;;;;;;;;;;;;;;;19.42;70.16;101418.85;2268808;77;51509;-77
2022/10/31 12:15:54;;;;;;;;;;;;;;;19.42;70.22;101414.83;2294326;77;50673;-79
2022/10/31 12:19:14;;;;;;;;;;;;;;;19.38;70.24;101425.59;2294378;77;50418;-77
2022/10/31 12:22:23;;;;;;;;;;;;;;;19.35;70.44;101421.39;2294581;77;50849;-77
2022/10/31 12:25:32;;;;;;;;;;;;;;;19.34;70.43;101418.36;2184564;80;51068;-77
2022/10/31 12:28:41;;;;;;;;;;;;;;;19.34;70.54;101416.53;2225623;79;50670;-77
2022/10/31 12:31:53;;;;;;;;;;;;;;;19.32;70.47;101417.20;2213999;79;51599;-78
2022/10/31 12:34:56;;;;;;;;;;;;;;;19.33;70.57;101408.64;2206061;79;50729;-77
2022/10/31 12:38:05;;;;;;;;;;;;;;;19.33;70.59;101406.79;2216756;78;51602;-77
2022/10/31 12:41:14;;;;;;;;;;;;;;;19.34;70.58;101400.91;2266477;78;51466;-79
2022/10/31 12:44:17;;;;;;;;;;;;;;;19.33;70.70;101399.25;2250399;78;50753;-77
2022/10/31 12:47:22;;;;;;;;;;;;;;;19.35;70.62;101400.75;2245560;79;50644;-78
2022/10/31 12:50:34;;;;;;;;;;;;;;;19.38;70.62;101396.06;2245530;79;22569;-79
2022/10/31 12:53:40;;;;;;;;;;;;;;;19.39;70.63;101397.73;2251157;77;50236;-78
2022/10/31 12:56:52;;;;;;;;;;;;;;;19.41;70.63;101384.98;2264088;77;51868;-77
2022/10/31 12:59:56;;;;;;;;;;;;;;;19.42;70.58;101383.96;2257092;76;51545;-77
2022/10/31 13:02:58;;;;;;;;;;;;;;;19.43;70.52;101387.83;2294311;74;51137;-77
2022/10/31 13:06:01;;;;;;;;;;;;;;;19.44;70.53;101385.98;2372879;74;50705;-77
2022/10/31 13:09:05;;;;;;;;;;;;;;;19.44;70.56;101381.95;2328322;76;50331;-77
2022/10/31 13:12:10;;;;;;;;;;;;;;;19.44;70.56;101381.95;2328497;76;50490;-76
2022/10/31 13:15:19;;;;;;;;;;;;;;;19.42;70.63;101378.11;2281997;76;49590;-77
2022/10/31 13:18:25;;;;;;;;;;;;;;;19.44;70.56;101384.64;2291851;76;51515;-76
2022/10/31 13:21:28;;;;;;;;;;;;;;;19.44;70.61;101377.41;2288537;77;51525;-76
2022/10/31 13:24:37;;;;;;;;;;;;;;;19.45;70.56;101379.11;2289190;77;51718;-79
2022/10/31 13:27:48;;;;;;;;;;;;;;;19.44;70.62;101374.73;2253062;77;49600;-77
2022/10/31 13:30:49;;;;;;;;;;;;;;;19.45;70.68;101375.59;2281874;76;51508;-75
2022/10/31 13:33:52;;;;;;;;;;;;;;;19.48;70.52;101368.53;2328055;75;50300;-75
2022/10/31 13:37:12;;;;;;;;;;;;;;;19.44;70.70;101373.91;2248729;77;50444;-76
2022/10/31 13:40:19;;;;;;;;;;;;;;;19.44;70.71;101373.39;2219208;79;50960;-75
2022/10/31 13:43:22;;;;;;;;;;;;;;;19.43;70.73;101366.88;2255551;77;50787;-75
2022/10/31 13:46:29;;;;;;;;;;;;;;;19.43;70.82;101369.55;2274566;78;50444;-75
2022/10/31 13:49:32;;;;;;;;;;;;;;;19.42;70.79;101366.52;2282527;78;50365;-76
2022/10/31 13:52:34;;;;;;;;;;;;;;;19.37;70.97;101361.69;2282757;76;50541;-76
2022/10/31 13:55:39;;;;;;;;;;;;;;;19.37;71.06;101360.34;2281802;76;50611;-76
2022/10/31 13:58:43;;;;;;;;;;;;;;;19.34;71.14;101354.81;2290861;77;52235;-75
2022/10/31 14:01:48;;;;;;;;;;;;;;;19.34;71.19;101350.80;2259071;76;50355;-75
2022/10/31 14:04:52;;;;;;;;;;;;;;;19.33;71.24;101349.61;2219367;79;50140;-77
2022/10/31 14:07:57;;;;;;;;;;;;;;;19.33;71.25;101347.75;2251364;79;51181;-76
2022/10/31 14:10:59;;;;;;;;;;;;;;;19.32;71.26;101346.09;2297015;77;50400;-75
2022/10/31 14:14:00;;;;;;;;;;;;;;;19.33;71.30;101341.05;2314656;75;50348;-75
2022/10/31 14:17:02;;;;;;;;;;;;;;;19.32;71.31;101347.44;2289142;76;49791;-76
2022/10/31 14:20:08;;;;;;;;;;;;;;;19.32;71.30;101341.23;2272446;77;50594;-75
2022/10/31 14:23:14;;;;;;;;;;;;;;;19.33;71.30;101343.73;2275342;78;51559;-75
2022/10/31 14:26:21;;;;;;;;;;;;;;;19.33;71.30;101343.73;2275363;77;51845;-75
2022/10/31 14:29:24;;;;;;;;;;;;;;;19.34;71.25;101340.05;2265769;77;49741;-75
2022/10/31 14:32:26;;;;;;;;;;;;;;;19.33;71.27;101339.70;2277013;77;50393;-75
2022/10/31 14:35:29;;;;;;;;;;;;;;;19.33;71.29;101338.36;2263164;77;50401;-75
2022/10/31 14:38:32;;;;;;;;;;;;;;;19.35;71.20;101332.33;2260805;77;50256;-75
2022/10/31 14:41:38;;;;;;;;;;;;;;;19.42;71.07;101334.31;2268521;78;50472;-75
2022/10/31 14:44:44;;;;;;;;;;;;;;;19.39;71.30;101334.15;2263147;78;50770;-75
2022/10/31 14:48:06;;;;;;;;;;;;;;;19.40;71.42;101325.11;2275605;77;51555;-75
2022/10/31 14:51:12;;;;;;;;;;;;;;;19.40;71.50;101325.11;2242643;78;51554;-75
2022/10/31 14:54:18;;;;;;;;;;;;;;;19.42;71.56;101327.60;2277000;77;51630;-76
2022/10/31 14:57:23;;;;;;;;;;;;;;;19.40;71.47;101325.11;2294566;76;51555;-76
2022/10/31 15:00:25;;;;;;;;;;;;;;;19.41;71.50;101324.09;2270129;78;51489;-75
2022/10/31 15:03:28;;;;;;;;;;;;;;;19.40;71.55;101321.59;2269916;78;50624;-75
2022/10/31 15:06:30;;;;;;;;;;;;;;;19.42;71.44;101316.87;2239328;78;51486;-75
2022/10/31 15:09:34;;;;;;;;;;;;;;;19.43;71.41;101318.56;2270295;78;50402;-76
2022/10/31 15:12:38;;;;;;;;;;;;;;;19.44;71.43;101321.56;2270367;77;50713;-76
2022/10/31 15:15:39;;;;;;;;;;;;;;;19.44;71.45;101320.22;2270187;78;50285;-77
2022/10/31 15:18:54;;;;;;;;;;;;;;;19.46;71.42;101318.21;2199059;79;50051;-77
2022/10/31 15:21:56;;;;;;;;;;;;;;;19.44;71.33;101310.83;2292840;77;51500;-76
2022/10/31 15:24:58;;;;;;;;;;;;;;;19.39;71.37;101314.02;2279590;77;50723;-76
2022/10/31 15:27:59;;;;;;;;;;;;;;;19.38;71.31;101312.88;2278368;77;50718;-77
2022/10/31 15:31:02;;;;;;;;;;;;;;;19.37;71.29;101312.05;2259703;77;51636;-76
2022/10/31 15:34:04;;;;;;;;;;;;;;;19.35;71.60;101317.56;2239840;78;50442;-76
2022/10/31 15:37:07;;;;;;;;;;;;;;;19.35;71.36;101311.37;2292809;77;51508;-75
2022/10/31 15:40:11;;;;;;;;;;;;;;;19.35;71.39;101309.52;2257927;77;51636;-76
2022/10/31 15:43:14;;;;;;;;;;;;;;;19.34;71.28;101310.54;2291931;77;51411;-76
2022/10/31 15:46:16;;;;;;;;;;;;;;;19.33;71.33;101306.16;2270181;78;50374;-76
2022/10/31 15:49:19;;;;;;;;;;;;;;;19.32;71.44;101303.16;2295669;76;50310;-76